sensor_id;sensor_type;location;lat;lon;timestamp;pressure;altitude;pressure_sealevel;temperature;humidity
59194;BME280;44967;48.598;15.650;2024-01-30T00:02:12;100011.94;;;-2.59;93.02
59194;BME280;44967;48.598;15.650;2024-01-30T00:04:38;100005.34;;;-2.52;93.75
59194;BME280;44967;48.598;15.650;2024-01-30T00:07:03;100010.25;;;-2.58;93.14
59194;BME280;44967;48.598;15.650;2024-01-30T00:09:29;100003.19;;;-2.78;92.93
59194;BME280;44967;48.598;15.650;2024-01-30T00:11:55;100001.41;;;-2.79;93.01
59194;BME280;44967;48.598;15.650;2024-01-30T00:14:22;100000.47;;;-2.81;92.99
59194;BME280;44967;48.598;15.650;2024-01-30T00:16:48;99992.47;;;-2.86;92.57
59194;BME280;44967;48.598;15.650;2024-01-30T00:19:14;99989.31;;;-2.80;93.06
59194;BME280;44967;48.598;15.650;2024-01-30T00:21:40;99995.72;;;-2.72;93.37
59194;BME280;44967;48.598;15.650;2024-01-30T00:24:06;99991.13;;;-2.96;92.99
59194;BME280;44967;48.598;15.650;2024-01-30T00:26:33;99990.84;;;-2.84;93.35
59194;BME280;44967;48.598;15.650;2024-01-30T00:28:59;99993.16;;;-2.90;92.77
59194;BME280;44967;48.598;15.650;2024-01-30T00:31:25;99991.63;;;-3.03;92.83
59194;BME280;44967;48.598;15.650;2024-01-30T00:33:51;99995.22;;;-3.01;92.86
59194;BME280;44967;48.598;15.650;2024-01-30T00:36:17;99993.56;;;-2.99;92.96
59194;BME280;44967;48.598;15.650;2024-01-30T00:38:42;99993.47;;;-3.00;93.11
59194;BME280;44967;48.598;15.650;2024-01-30T00:41:08;99988.63;;;-2.94;93.04
59194;BME280;44967;48.598;15.650;2024-01-30T00:43:35;99991.97;;;-2.97;92.66
59194;BME280;44967;48.598;15.650;2024-01-30T00:46:01;99990.69;;;-3.05;92.97
59194;BME280;44967;48.598;15.650;2024-01-30T00:48:27;99998.13;;;-3.11;92.81
59194;BME280;44967;48.598;15.650;2024-01-30T00:50:53;99997.03;;;-2.98;93.04
59194;BME280;44967;48.598;15.650;2024-01-30T00:53:19;99998.34;;;-3.06;92.64
59194;BME280;44967;48.598;15.650;2024-01-30T00:55:46;99989.00;;;-3.04;92.38
59194;BME280;44967;48.598;15.650;2024-01-30T00:58:12;99987.94;;;-3.08;92.77
59194;BME280;44967;48.598;15.650;2024-01-30T01:00:38;99988.47;;;-2.97;92.73
59194;BME280;44967;48.598;15.650;2024-01-30T01:03:04;99985.16;;;-2.95;92.60
59194;BME280;44967;48.598;15.650;2024-01-30T01:05:30;99983.09;;;-3.02;92.63
59194;BME280;44967;48.598;15.650;2024-01-30T01:07:56;99981.81;;;-3.10;92.18
59194;BME280;44967;48.598;15.650;2024-01-30T01:10:21;99984.41;;;-3.10;92.66
59194;BME280;44967;48.598;15.650;2024-01-30T01:12:48;99973.50;;;-3.04;93.27
59194;BME280;44967;48.598;15.650;2024-01-30T01:15:13;99974.16;;;-2.91;92.68
59194;BME280;44967;48.598;15.650;2024-01-30T01:17:39;99974.91;;;-2.93;92.66
59194;BME280;44967;48.598;15.650;2024-01-30T01:20:06;99975.28;;;-2.86;92.77
59194;BME280;44967;48.598;15.650;2024-01-30T01:22:33;99970.09;;;-2.86;92.82
59194;BME280;44967;48.598;15.650;2024-01-30T01:24:59;99970.75;;;-2.90;92.60
59194;BME280;44967;48.598;15.650;2024-01-30T01:27:25;99971.31;;;-3.13;92.15
59194;BME280;44967;48.598;15.650;2024-01-30T01:29:52;99968.25;;;-3.22;92.06
59194;BME280;44967;48.598;15.650;2024-01-30T01:32:18;99959.72;;;-3.21;92.40
59194;BME280;44967;48.598;15.650;2024-01-30T01:34:44;99963.09;;;-3.22;92.35
59194;BME280;44967;48.598;15.650;2024-01-30T01:37:10;99967.38;;;-3.22;92.42
59194;BME280;44967;48.598;15.650;2024-01-30T01:39:36;99965.78;;;-3.20;92.44
59194;BME280;44967;48.598;15.650;2024-01-30T01:42:02;99953.56;;;-3.23;92.15
59194;BME280;44967;48.598;15.650;2024-01-30T01:44:28;99957.13;;;-3.21;91.88
59194;BME280;44967;48.598;15.650;2024-01-30T01:46:54;99959.56;;;-3.24;91.68
59194;BME280;44967;48.598;15.650;2024-01-30T01:49:22;99964.56;;;-3.27;92.35
59194;BME280;44967;48.598;15.650;2024-01-30T01:51:49;99957.88;;;-3.40;91.48
59194;BME280;44967;48.598;15.650;2024-01-30T01:54:16;99952.94;;;-3.35;92.09
59194;BME280;44967;48.598;15.650;2024-01-30T01:56:43;99955.28;;;-3.40;92.03
59194;BME280;44967;48.598;15.650;2024-01-30T01:59:09;99959.88;;;-3.34;92.35
59194;BME280;44967;48.598;15.650;2024-01-30T02:01:37;99954.63;;;-3.36;92.06
59194;BME280;44967;48.598;15.650;2024-01-30T02:04:04;99953.59;;;-3.39;91.64
59194;BME280;44967;48.598;15.650;2024-01-30T02:06:30;99948.59;;;-3.36;91.89
59194;BME280;44967;48.598;15.650;2024-01-30T02:08:56;99950.34;;;-3.35;91.75
59194;BME280;44967;48.598;15.650;2024-01-30T02:11:22;99959.16;;;-3.32;92.00
59194;BME280;44967;48.598;15.650;2024-01-30T02:13:50;99956.50;;;-3.33;91.99
59194;BME280;44967;48.598;15.650;2024-01-30T02:16:16;99955.38;;;-3.38;92.15
59194;BME280;44967;48.598;15.650;2024-01-30T02:18:45;99959.09;;;-3.33;92.45
59194;BME280;44967;48.598;15.650;2024-01-30T02:21:16;99959.34;;;-3.45;91.60
59194;BME280;44967;48.598;15.650;2024-01-30T02:23:47;99954.25;;;-3.43;92.06
59194;BME280;44967;48.598;15.650;2024-01-30T02:26:14;99958.75;;;-3.39;92.38
59194;BME280;44967;48.598;15.650;2024-01-30T02:28:40;99953.16;;;-3.48;91.75
59194;BME280;44967;48.598;15.650;2024-01-30T02:31:06;99957.75;;;-3.59;91.91
59194;BME280;44967;48.598;15.650;2024-01-30T02:33:31;99952.91;;;-3.53;92.60
59194;BME280;44967;48.598;15.650;2024-01-30T02:35:57;99968.97;;;-3.58;92.22
59194;BME280;44967;48.598;15.650;2024-01-30T02:38:23;99963.38;;;-3.50;93.02
59194;BME280;44967;48.598;15.650;2024-01-30T02:40:49;99956.81;;;-3.43;92.37
59194;BME280;44967;48.598;15.650;2024-01-30T02:43:16;99958.50;;;-3.27;93.07
59194;BME280;44967;48.598;15.650;2024-01-30T02:45:42;99956.22;;;-3.21;93.46
59194;BME280;44967;48.598;15.650;2024-01-30T02:48:08;99957.53;;;-3.29;92.98
59194;BME280;44967;48.598;15.650;2024-01-30T02:50:34;99956.03;;;-3.42;92.07
59194;BME280;44967;48.598;15.650;2024-01-30T02:52:59;99949.25;;;-3.40;92.30
59194;BME280;44967;48.598;15.650;2024-01-30T02:55:25;99951.22;;;-3.52;92.30
59194;BME280;44967;48.598;15.650;2024-01-30T02:57:51;99951.50;;;-3.46;91.91
59194;BME280;44967;48.598;15.650;2024-01-30T03:00:16;99953.56;;;-3.57;92.09
59194;BME280;44967;48.598;15.650;2024-01-30T03:02:42;99939.72;;;-3.41;92.92
59194;BME280;44967;48.598;15.650;2024-01-30T03:05:08;99943.22;;;-3.23;93.15
59194;BME280;44967;48.598;15.650;2024-01-30T03:07:34;99948.13;;;-3.11;93.48
59194;BME280;44967;48.598;15.650;2024-01-30T03:10:00;99939.56;;;-3.10;93.68
59194;BME280;44967;48.598;15.650;2024-01-30T03:12:26;99941.53;;;-3.22;93.52
59194;BME280;44967;48.598;15.650;2024-01-30T03:14:52;99932.06;;;-3.22;93.51
59194;BME280;44967;48.598;15.650;2024-01-30T03:17:18;99938.56;;;-3.30;93.30
59194;BME280;44967;48.598;15.650;2024-01-30T03:19:43;99941.28;;;-3.27;93.50
59194;BME280;44967;48.598;15.650;2024-01-30T03:22:09;99942.97;;;-3.27;93.25
59194;BME280;44967;48.598;15.650;2024-01-30T03:24:35;99937.53;;;-3.16;93.46
59194;BME280;44967;48.598;15.650;2024-01-30T03:27:01;99938.97;;;-3.05;94.08
59194;BME280;44967;48.598;15.650;2024-01-30T03:29:26;99946.28;;;-3.14;93.19
59194;BME280;44967;48.598;15.650;2024-01-30T03:31:52;99942.28;;;-3.25;93.00
59194;BME280;44967;48.598;15.650;2024-01-30T03:34:18;99938.88;;;-3.24;92.65
59194;BME280;44967;48.598;15.650;2024-01-30T03:36:44;99931.41;;;-3.18;92.96
59194;BME280;44967;48.598;15.650;2024-01-30T03:39:10;99935.94;;;-3.14;92.94
59194;BME280;44967;48.598;15.650;2024-01-30T03:41:35;99937.19;;;-3.06;92.78
59194;BME280;44967;48.598;15.650;2024-01-30T03:44:02;99941.78;;;-3.00;93.09
59194;BME280;44967;48.598;15.650;2024-01-30T03:46:28;99940.38;;;-2.94;93.23
59194;BME280;44967;48.598;15.650;2024-01-30T03:48:54;99938.75;;;-2.92;92.62
59194;BME280;44967;48.598;15.650;2024-01-30T03:51:19;99935.88;;;-2.80;92.75
59194;BME280;44967;48.598;15.650;2024-01-30T03:53:45;99935.19;;;-2.76;93.03
59194;BME280;44967;48.598;15.650;2024-01-30T03:56:12;99933.50;;;-2.75;92.88
59194;BME280;44967;48.598;15.650;2024-01-30T03:58:40;99928.34;;;-2.75;92.92
59194;BME280;44967;48.598;15.650;2024-01-30T04:01:07;99930.47;;;-2.67;93.12
59194;BME280;44967;48.598;15.650;2024-01-30T04:03:38;99936.09;;;-2.58;93.13
59194;BME280;44967;48.598;15.650;2024-01-30T04:06:04;99940.75;;;-2.51;93.26
59194;BME280;44967;48.598;15.650;2024-01-30T04:08:30;99941.63;;;-2.50;93.35
59194;BME280;44967;48.598;15.650;2024-01-30T04:10:56;99943.59;;;-2.45;93.29
59194;BME280;44967;48.598;15.650;2024-01-30T04:13:21;99940.69;;;-2.33;93.47
59194;BME280;44967;48.598;15.650;2024-01-30T04:15:47;99940.47;;;-2.20;94.07
59194;BME280;44967;48.598;15.650;2024-01-30T04:18:13;99940.91;;;-2.11;94.01
59194;BME280;44967;48.598;15.650;2024-01-30T04:20:38;99936.94;;;-2.03;94.20
59194;BME280;44967;48.598;15.650;2024-01-30T04:23:04;99935.25;;;-2.02;93.68
59194;BME280;44967;48.598;15.650;2024-01-30T04:25:30;99946.09;;;-1.92;94.41
59194;BME280;44967;48.598;15.650;2024-01-30T04:27:56;99939.63;;;-1.82;94.91
59194;BME280;44967;48.598;15.650;2024-01-30T04:30:21;99935.72;;;-1.72;95.06
59194;BME280;44967;48.598;15.650;2024-01-30T04:32:47;99940.16;;;-1.70;94.90
59194;BME280;44967;48.598;15.650;2024-01-30T04:35:13;99937.91;;;-1.62;94.82
59194;BME280;44967;48.598;15.650;2024-01-30T04:37:39;99945.25;;;-1.52;95.55
59194;BME280;44967;48.598;15.650;2024-01-30T04:40:05;99948.75;;;-1.52;94.91
59194;BME280;44967;48.598;15.650;2024-01-30T04:42:31;99951.75;;;-1.42;95.27
59194;BME280;44967;48.598;15.650;2024-01-30T04:44:57;99946.94;;;-1.33;95.25
59194;BME280;44967;48.598;15.650;2024-01-30T04:47:23;99942.63;;;-1.33;95.05
59194;BME280;44967;48.598;15.650;2024-01-30T04:49:51;99950.50;;;-1.31;94.96
59194;BME280;44967;48.598;15.650;2024-01-30T04:52:17;99945.34;;;-1.30;95.36
59194;BME280;44967;48.598;15.650;2024-01-30T04:54:43;99948.22;;;-1.24;95.89
59194;BME280;44967;48.598;15.650;2024-01-30T04:57:09;99952.59;;;-1.23;95.76
59194;BME280;44967;48.598;15.650;2024-01-30T04:59:37;99950.13;;;-1.20;95.74
59194;BME280;44967;48.598;15.650;2024-01-30T05:02:03;99945.06;;;-1.17;95.86
59194;BME280;44967;48.598;15.650;2024-01-30T05:04:29;99948.75;;;-1.12;96.08
59194;BME280;44967;48.598;15.650;2024-01-30T05:06:54;99944.69;;;-1.05;95.57
59194;BME280;44967;48.598;15.650;2024-01-30T05:09:20;99947.47;;;-1.01;96.08
59194;BME280;44967;48.598;15.650;2024-01-30T05:11:46;99944.00;;;-1.01;95.24
59194;BME280;44967;48.598;15.650;2024-01-30T05:14:12;99945.66;;;-1.03;95.43
59194;BME280;44967;48.598;15.650;2024-01-30T05:16:41;99937.09;;;-1.01;95.94
59194;BME280;44967;48.598;15.650;2024-01-30T05:19:08;99949.38;;;-0.97;95.53
59194;BME280;44967;48.598;15.650;2024-01-30T05:21:34;99947.59;;;-0.98;96.06
59194;BME280;44967;48.598;15.650;2024-01-30T05:24:00;99939.94;;;-0.95;95.26
59194;BME280;44967;48.598;15.650;2024-01-30T05:26:25;99939.00;;;-0.97;95.46
59194;BME280;44967;48.598;15.650;2024-01-30T05:28:52;99939.22;;;-0.90;96.41
59194;BME280;44967;48.598;15.650;2024-01-30T05:31:17;99944.50;;;-0.89;95.69
59194;BME280;44967;48.598;15.650;2024-01-30T05:33:43;99946.28;;;-0.88;96.57
59194;BME280;44967;48.598;15.650;2024-01-30T05:36:11;99945.69;;;-0.81;96.67
59194;BME280;44967;48.598;15.650;2024-01-30T05:38:37;99942.53;;;-0.74;96.45
59194;BME280;44967;48.598;15.650;2024-01-30T05:41:04;99941.78;;;-0.71;96.43
59194;BME280;44967;48.598;15.650;2024-01-30T05:43:29;99952.16;;;-0.71;96.54
59194;BME280;44967;48.598;15.650;2024-01-30T05:45:55;99946.78;;;-0.76;96.86
59194;BME280;44967;48.598;15.650;2024-01-30T05:48:21;99950.38;;;-0.72;96.36
59194;BME280;44967;48.598;15.650;2024-01-30T05:50:47;99945.44;;;-0.66;96.93
59194;BME280;44967;48.598;15.650;2024-01-30T05:53:12;99955.91;;;-0.63;97.25
59194;BME280;44967;48.598;15.650;2024-01-30T05:55:38;99951.47;;;-0.67;96.23
59194;BME280;44967;48.598;15.650;2024-01-30T05:58:04;99956.69;;;-0.66;97.04
59194;BME280;44967;48.598;15.650;2024-01-30T06:00:30;99961.19;;;-0.62;96.98
59194;BME280;44967;48.598;15.650;2024-01-30T06:02:55;99957.91;;;-0.58;97.02
59194;BME280;44967;48.598;15.650;2024-01-30T06:05:21;99958.53;;;-0.63;96.88
59194;BME280;44967;48.598;15.650;2024-01-30T06:07:47;99960.97;;;-0.68;96.99
59194;BME280;44967;48.598;15.650;2024-01-30T06:10:13;99963.97;;;-0.57;97.11
59194;BME280;44967;48.598;15.650;2024-01-30T06:12:39;99964.91;;;-0.55;97.29
59194;BME280;44967;48.598;15.650;2024-01-30T06:15:05;99958.16;;;-0.52;97.88
59194;BME280;44967;48.598;15.650;2024-01-30T06:17:32;99970.34;;;-0.49;97.22
59194;BME280;44967;48.598;15.650;2024-01-30T06:19:58;99959.09;;;-0.50;97.25
59194;BME280;44967;48.598;15.650;2024-01-30T06:22:24;99965.16;;;-0.49;97.59
59194;BME280;44967;48.598;15.650;2024-01-30T06:24:50;99959.88;;;-0.52;97.11
59194;BME280;44967;48.598;15.650;2024-01-30T06:27:16;99967.13;;;-0.43;97.42
59194;BME280;44967;48.598;15.650;2024-01-30T06:29:43;99966.41;;;-0.39;97.31
59194;BME280;44967;48.598;15.650;2024-01-30T06:32:09;99964.75;;;-0.37;97.35
59194;BME280;44967;48.598;15.650;2024-01-30T06:34:34;99968.28;;;-0.35;97.14
59194;BME280;44967;48.598;15.650;2024-01-30T06:37:00;99969.06;;;-0.38;96.39
59194;BME280;44967;48.598;15.650;2024-01-30T06:39:26;99963.25;;;-0.32;97.07
59194;BME280;44967;48.598;15.650;2024-01-30T06:41:52;99962.56;;;-0.27;96.52
59194;BME280;44967;48.598;15.650;2024-01-30T06:44:18;99972.25;;;-0.23;96.52
59194;BME280;44967;48.598;15.650;2024-01-30T06:46:44;99973.25;;;-0.19;96.52
59194;BME280;44967;48.598;15.650;2024-01-30T06:49:09;99973.25;;;-0.19;95.93
59194;BME280;44967;48.598;15.650;2024-01-30T06:51:35;99971.44;;;-0.22;96.17
59194;BME280;44967;48.598;15.650;2024-01-30T06:54:01;99970.75;;;-0.18;95.29
59194;BME280;44967;48.598;15.650;2024-01-30T06:56:28;99978.63;;;-0.15;95.86
59194;BME280;44967;48.598;15.650;2024-01-30T06:58:54;99968.97;;;-0.19;95.41
59194;BME280;44967;48.598;15.650;2024-01-30T07:01:19;99975.94;;;-0.18;95.74
59194;BME280;44967;48.598;15.650;2024-01-30T07:03:45;99981.19;;;-0.16;95.74
59194;BME280;44967;48.598;15.650;2024-01-30T07:06:11;99984.81;;;-0.13;95.44
59194;BME280;44967;48.598;15.650;2024-01-30T07:08:37;99988.28;;;-0.12;96.13
59194;BME280;44967;48.598;15.650;2024-01-30T07:11:05;99985.72;;;-0.11;95.57
59194;BME280;44967;48.598;15.650;2024-01-30T07:13:32;99989.09;;;-0.13;94.84
59194;BME280;44967;48.598;15.650;2024-01-30T07:15:58;99991.19;;;-0.05;95.17
59194;BME280;44967;48.598;15.650;2024-01-30T07:18:24;99987.72;;;-0.04;94.85
59194;BME280;44967;48.598;15.650;2024-01-30T07:20:49;99992.94;;;-0.04;95.07
59194;BME280;44967;48.598;15.650;2024-01-30T07:23:16;100009.47;;;-0.02;95.19
59194;BME280;44967;48.598;15.650;2024-01-30T07:25:46;100007.94;;;0.04;94.91
59194;BME280;44967;48.598;15.650;2024-01-30T07:28:14;100006.88;;;-0.02;94.88
59194;BME280;44967;48.598;15.650;2024-01-30T07:30:43;100009.69;;;0.05;94.30
59194;BME280;44967;48.598;15.650;2024-01-30T07:33:10;100012.25;;;0.03;94.55
59194;BME280;44967;48.598;15.650;2024-01-30T07:35:36;100004.56;;;0.06;94.70
59194;BME280;44967;48.598;15.650;2024-01-30T07:38:02;100013.28;;;0.08;94.08
59194;BME280;44967;48.598;15.650;2024-01-30T07:40:28;100023.06;;;0.14;94.30
59194;BME280;44967;48.598;15.650;2024-01-30T07:42:54;100010.78;;;0.10;94.26
59194;BME280;44967;48.598;15.650;2024-01-30T07:45:20;100012.66;;;0.14;94.85
59194;BME280;44967;48.598;15.650;2024-01-30T07:47:49;100006.53;;;0.12;94.68
59194;BME280;44967;48.598;15.650;2024-01-30T07:50:15;100011.78;;;0.13;93.80
59194;BME280;44967;48.598;15.650;2024-01-30T07:52:42;100005.88;;;0.17;94.31
59194;BME280;44967;48.598;15.650;2024-01-30T07:55:45;100015.53;;;0.21;94.57
59194;BME280;44967;48.598;15.650;2024-01-30T07:58:12;100013.72;;;0.19;94.50
59194;BME280;44967;48.598;15.650;2024-01-30T08:00:38;100016.44;;;0.22;93.92
59194;BME280;44967;48.598;15.650;2024-01-30T08:03:04;100021.75;;;0.25;93.72
59194;BME280;44967;48.598;15.650;2024-01-30T08:05:30;100012.22;;;0.25;93.20
59194;BME280;44967;48.598;15.650;2024-01-30T08:07:56;100016.72;;;0.29;93.52
59194;BME280;44967;48.598;15.650;2024-01-30T08:10:22;100015.00;;;0.30;94.08
59194;BME280;44967;48.598;15.650;2024-01-30T08:12:47;100014.22;;;0.32;93.24
59194;BME280;44967;48.598;15.650;2024-01-30T08:15:13;100018.78;;;0.38;93.51
59194;BME280;44967;48.598;15.650;2024-01-30T08:17:39;100019.56;;;0.35;93.55
59194;BME280;44967;48.598;15.650;2024-01-30T08:20:06;100013.47;;;0.35;92.82
59194;BME280;44967;48.598;15.650;2024-01-30T08:22:34;100013.69;;;0.41;93.30
59194;BME280;44967;48.598;15.650;2024-01-30T08:24:59;100013.94;;;0.47;93.08
59194;BME280;44967;48.598;15.650;2024-01-30T08:27:26;100019.19;;;0.48;91.80
59194;BME280;44967;48.598;15.650;2024-01-30T08:29:51;100013.22;;;0.51;92.48
59194;BME280;44967;48.598;15.650;2024-01-30T08:32:17;100022.19;;;0.59;92.57
59194;BME280;44967;48.598;15.650;2024-01-30T08:34:43;100017.63;;;0.54;91.63
59194;BME280;44967;48.598;15.650;2024-01-30T08:37:09;100016.69;;;0.52;91.95
59194;BME280;44967;48.598;15.650;2024-01-30T08:39:34;100017.34;;;0.46;91.57
59194;BME280;44967;48.598;15.650;2024-01-30T08:42:00;100012.75;;;0.39;90.99
59194;BME280;44967;48.598;15.650;2024-01-30T08:44:26;100018.78;;;0.38;91.58
59194;BME280;44967;48.598;15.650;2024-01-30T08:46:52;100009.44;;;0.43;91.73
59194;BME280;44967;48.598;15.650;2024-01-30T08:49:19;100013.09;;;0.48;92.01
59194;BME280;44967;48.598;15.650;2024-01-30T08:51:45;100010.72;;;0.54;91.38
59194;BME280;44967;48.598;15.650;2024-01-30T08:54:11;100014.25;;;0.56;91.14
59194;BME280;44967;48.598;15.650;2024-01-30T08:56:36;100012.78;;;0.63;91.79
59194;BME280;44967;48.598;15.650;2024-01-30T08:59:02;100013.78;;;0.66;91.65
59194;BME280;44967;48.598;15.650;2024-01-30T09:01:28;100018.25;;;0.70;91.56
59194;BME280;44967;48.598;15.650;2024-01-30T09:03:56;100020.00;;;0.71;90.94
59194;BME280;44967;48.598;15.650;2024-01-30T09:06:21;100016.38;;;0.66;91.42
59194;BME280;44967;48.598;15.650;2024-01-30T09:08:47;100015.53;;;0.67;91.92
59194;BME280;44967;48.598;15.650;2024-01-30T09:11:14;100013.72;;;0.65;91.55
59194;BME280;44967;48.598;15.650;2024-01-30T09:13:40;100012.91;;;0.67;91.59
59194;BME280;44967;48.598;15.650;2024-01-30T09:16:06;100019.41;;;0.55;91.44
59194;BME280;44967;48.598;15.650;2024-01-30T09:18:33;100016.75;;;0.53;90.94
59194;BME280;44967;48.598;15.650;2024-01-30T09:20:59;100016.22;;;0.62;91.79
59194;BME280;44967;48.598;15.650;2024-01-30T09:23:26;100013.50;;;0.59;92.11
59194;BME280;44967;48.598;15.650;2024-01-30T09:25:52;100013.72;;;0.65;91.71
59194;BME280;44967;48.598;15.650;2024-01-30T09:28:18;100024.13;;;0.65;91.69
59194;BME280;44967;48.598;15.650;2024-01-30T09:30:43;100017.47;;;0.73;91.49
59194;BME280;44967;48.598;15.650;2024-01-30T09:33:09;100026.59;;;0.85;91.98
59194;BME280;44967;48.598;15.650;2024-01-30T09:35:36;100023.41;;;0.69;90.74
59194;BME280;44967;48.598;15.650;2024-01-30T09:38:02;100027.41;;;0.59;91.34
59194;BME280;44967;48.598;15.650;2024-01-30T09:40:28;100028.16;;;0.57;90.38
59194;BME280;44967;48.598;15.650;2024-01-30T09:42:54;100026.72;;;0.65;91.04
59194;BME280;44967;48.598;15.650;2024-01-30T09:45:24;100031.31;;;0.72;91.06
59194;BME280;44967;48.598;15.650;2024-01-30T09:47:50;100025.38;;;0.76;90.86
59194;BME280;44967;48.598;15.650;2024-01-30T09:50:17;100027.22;;;0.78;90.16
59194;BME280;44967;48.598;15.650;2024-01-30T09:52:44;100030.00;;;0.83;90.17
59194;BME280;44967;48.598;15.650;2024-01-30T09:55:09;100030.00;;;0.83;90.58
59194;BME280;44967;48.598;15.650;2024-01-30T09:57:36;100022.31;;;0.87;90.18
59194;BME280;44967;48.598;15.650;2024-01-30T10:00:03;100031.28;;;0.95;90.43
59194;BME280;44967;48.598;15.650;2024-01-30T10:02:33;100033.97;;;0.97;89.53
59194;BME280;44967;48.598;15.650;2024-01-30T10:05:00;100029.41;;;0.91;89.40
59194;BME280;44967;48.598;15.650;2024-01-30T10:07:28;100025.34;;;0.98;89.91
59194;BME280;44967;48.598;15.650;2024-01-30T10:09:58;100034.88;;;0.99;89.05
59194;BME280;44967;48.598;15.650;2024-01-30T10:12:29;100029.53;;;0.94;88.74
59194;BME280;44967;48.598;15.650;2024-01-30T10:14:56;100028.53;;;0.91;88.47
59194;BME280;44967;48.598;15.650;2024-01-30T10:17:25;100024.19;;;0.90;89.21
59194;BME280;44967;48.598;15.650;2024-01-30T10:19:50;100021.59;;;0.91;89.29
59194;BME280;44967;48.598;15.650;2024-01-30T10:22:16;100019.97;;;0.93;88.24
59194;BME280;44967;48.598;15.650;2024-01-30T10:24:42;100022.91;;;1.03;89.05
59194;BME280;44967;48.598;15.650;2024-01-30T10:27:10;100013.31;;;1.02;87.63
59194;BME280;44967;48.598;15.650;2024-01-30T10:29:37;100009.66;;;0.97;88.11
59194;BME280;44967;48.598;15.650;2024-01-30T10:32:04;100005.97;;;0.90;88.38
59194;BME280;44967;48.598;15.650;2024-01-30T10:34:30;100012.06;;;0.90;88.40
59194;BME280;44967;48.598;15.650;2024-01-30T10:37:07;100010.03;;;0.83;88.90
59194;BME280;44967;48.598;15.650;2024-01-30T10:39:39;100001.66;;;0.90;89.20
59194;BME280;44967;48.598;15.650;2024-01-30T10:42:20;100001.06;;;0.99;88.96
59194;BME280;44967;48.598;15.650;2024-01-30T10:45:02;100009.75;;;1.00;88.77
59194;BME280;44967;48.598;15.650;2024-01-30T10:47:34;100004.25;;;1.16;88.09
59194;BME280;44967;48.598;15.650;2024-01-30T10:50:00;100001.25;;;1.30;87.89
59194;BME280;44967;48.598;15.650;2024-01-30T10:52:32;100007.47;;;1.34;87.66
59194;BME280;44967;48.598;15.650;2024-01-30T10:54:58;100004.97;;;1.37;87.70
59194;BME280;44967;48.598;15.650;2024-01-30T10:57:26;99998.72;;;1.32;86.93
59194;BME280;44967;48.598;15.650;2024-01-30T10:59:56;99999.69;;;1.34;86.76
59194;BME280;44967;48.598;15.650;2024-01-30T11:02:23;100013.19;;;1.24;86.57
59194;BME280;44967;48.598;15.650;2024-01-30T11:04:50;100001.81;;;1.20;87.61
59194;BME280;44967;48.598;15.650;2024-01-30T11:07:19;99981.47;;;1.35;87.97
59194;BME280;44967;48.598;15.650;2024-01-30T11:09:59;99984.16;;;1.37;86.86
59194;BME280;44967;48.598;15.650;2024-01-30T11:12:33;99979.97;;;1.42;86.55
59194;BME280;44967;48.598;15.650;2024-01-30T11:15:10;99981.63;;;1.40;86.12
59194;BME280;44967;48.598;15.650;2024-01-30T11:20:35;99990.03;;;1.58;86.65
59194;BME280;44967;48.598;15.650;2024-01-30T11:23:11;99978.44;;;1.49;86.46
59194;BME280;44967;48.598;15.650;2024-01-30T11:25:37;99978.38;;;1.47;85.88
59194;BME280;44967;48.598;15.650;2024-01-30T11:28:04;99977.63;;;1.50;86.14
59194;BME280;44967;48.598;15.650;2024-01-30T11:30:32;99974.47;;;1.60;85.97
59194;BME280;44967;48.598;15.650;2024-01-30T11:35:37;99965.16;;;1.68;86.55
59194;BME280;44967;48.598;15.650;2024-01-30T11:38:05;99967.44;;;1.57;85.67
59194;BME280;44967;48.598;15.650;2024-01-30T11:40:33;99961.53;;;1.63;85.93
59194;BME280;44967;48.598;15.650;2024-01-30T11:43:00;99955.81;;;1.74;85.08
59194;BME280;44967;48.598;15.650;2024-01-30T11:45:26;99962.00;;;1.78;84.70
59194;BME280;44967;48.598;15.650;2024-01-30T11:47:53;99958.56;;;1.79;84.85
59194;BME280;44967;48.598;15.650;2024-01-30T11:50:19;99951.09;;;1.89;84.98
59194;BME280;44967;48.598;15.650;2024-01-30T11:52:45;99948.94;;;1.76;84.82
59194;BME280;44967;48.598;15.650;2024-01-30T11:55:12;99953.56;;;1.85;83.81
59194;BME280;44967;48.598;15.650;2024-01-30T11:57:38;99958.91;;;1.89;83.78
59194;BME280;44967;48.598;15.650;2024-01-30T12:00:04;99945.16;;;1.95;83.18
59194;BME280;44967;48.598;15.650;2024-01-30T12:02:39;99948.72;;;1.97;83.25
59194;BME280;44967;48.598;15.650;2024-01-30T12:05:06;99945.75;;;1.85;82.76
59194;BME280;44967;48.598;15.650;2024-01-30T12:07:33;99945.97;;;1.93;82.99
59194;BME280;44967;48.598;15.650;2024-01-30T12:09:59;99936.81;;;2.05;82.43
59194;BME280;44967;48.598;15.650;2024-01-30T12:12:26;99937.66;;;2.06;81.87
59194;BME280;44967;48.598;15.650;2024-01-30T12:14:52;99931.81;;;2.13;82.15
59194;BME280;44967;48.598;15.650;2024-01-30T12:17:44;99938.28;;;2.27;81.90
59194;BME280;44967;48.598;15.650;2024-01-30T12:20:13;99934.94;;;2.31;82.26
59194;BME280;44967;48.598;15.650;2024-01-30T12:22:46;99932.47;;;2.35;81.84
59194;BME280;44967;48.598;15.650;2024-01-30T12:25:13;99923.69;;;2.33;81.12
59194;BME280;44967;48.598;15.650;2024-01-30T12:27:41;99927.59;;;2.48;81.20
59194;BME280;44967;48.598;15.650;2024-01-30T12:30:12;99925.31;;;2.60;80.55
59194;BME280;44967;48.598;15.650;2024-01-30T12:32:44;99923.25;;;2.48;80.63
59194;BME280;44967;48.598;15.650;2024-01-30T12:35:11;99918.03;;;2.48;80.84
59194;BME280;44967;48.598;15.650;2024-01-30T12:37:38;99917.91;;;2.44;78.64
59194;BME280;44967;48.598;15.650;2024-01-30T12:40:04;99913.91;;;2.25;79.54
59194;BME280;44967;48.598;15.650;2024-01-30T12:42:31;99917.84;;;2.42;80.59
59194;BME280;44967;48.598;15.650;2024-01-30T12:44:58;99915.41;;;2.17;79.74
59194;BME280;44967;48.598;15.650;2024-01-30T12:47:25;99912.66;;;2.12;81.18
59194;BME280;44967;48.598;15.650;2024-01-30T12:49:51;99897.78;;;2.08;80.98
59194;BME280;44967;48.598;15.650;2024-01-30T12:52:20;99899.28;;;2.02;81.37
59194;BME280;44967;48.598;15.650;2024-01-30T12:54:49;99899.75;;;2.17;81.03